sensor_id;sensor_type;location;lat;lon;timestamp;P1;durP1;ratioP1;P2;durP2;ratioP2
53411;SDS011;39307;52.870;13.660;2023-06-19T00:02:13;11.68;;;8.27;;
53411;SDS011;39307;52.870;13.660;2023-06-19T00:04:39;10.80;;;7.97;;
53411;SDS011;39307;52.870;13.660;2023-06-19T00:07:05;10.93;;;8.20;;
53411;SDS011;39307;52.870;13.660;2023-06-19T00:09:32;12.55;;;8.18;;
53411;SDS011;39307;52.870;13.660;2023-06-19T00:11:58;10.80;;;8.00;;
53411;SDS011;39307;52.870;13.660;2023-06-19T00:14:25;12.18;;;8.27;;
53411;SDS011;39307;52.870;13.660;2023-06-19T00:16:51;10.73;;;8.55;;
53411;SDS011;39307;52.870;13.660;2023-06-19T00:19:17;10.98;;;8.05;;
53411;SDS011;39307;52.870;13.660;2023-06-19T00:21:43;10.40;;;7.97;;
53411;SDS011;39307;52.870;13.660;2023-06-19T00:24:10;12.32;;;8.60;;
53411;SDS011;39307;52.870;13.660;2023-06-19T00:26:36;10.50;;;7.88;;
53411;SDS011;39307;52.870;13.660;2023-06-19T00:29:02;10.43;;;8.00;;
53411;SDS011;39307;52.870;13.660;2023-06-19T00:31:28;10.23;;;7.80;;
53411;SDS011;39307;52.870;13.660;2023-06-19T00:33:55;10.00;;;7.90;;
53411;SDS011;39307;52.870;13.660;2023-06-19T00:36:23;10.65;;;8.25;;
53411;SDS011;39307;52.870;13.660;2023-06-19T00:38:50;9.60;;;7.75;;
53411;SDS011;39307;52.870;13.660;2023-06-19T00:41:17;11.93;;;7.50;;
53411;SDS011;39307;52.870;13.660;2023-06-19T00:43:45;9.60;;;7.70;;
53411;SDS011;39307;52.870;13.660;2023-06-19T00:46:11;12.15;;;8.70;;
53411;SDS011;39307;52.870;13.660;2023-06-19T00:48:38;11.60;;;8.50;;
53411;SDS011;39307;52.870;13.660;2023-06-19T00:51:04;10.77;;;8.50;;
53411;SDS011;39307;52.870;13.660;2023-06-19T00:53:31;10.65;;;8.82;;
53411;SDS011;39307;52.870;13.660;2023-06-19T00:55:58;11.25;;;8.73;;
53411;SDS011;39307;52.870;13.660;2023-06-19T00:58:25;10.43;;;8.38;;
53411;SDS011;39307;52.870;13.660;2023-06-19T01:00:51;11.50;;;8.75;;
53411;SDS011;39307;52.870;13.660;2023-06-19T01:03:18;11.15;;;8.30;;
53411;SDS011;39307;52.870;13.660;2023-06-19T01:05:44;10.80;;;8.48;;
53411;SDS011;39307;52.870;13.660;2023-06-19T01:08:25;13.88;;;9.30;;
53411;SDS011;39307;52.870;13.660;2023-06-19T01:10:56;11.20;;;8.63;;
53411;SDS011;39307;52.870;13.660;2023-06-19T01:16:19;13.63;;;8.60;;
53411;SDS011;39307;52.870;13.660;2023-06-19T01:18:47;10.30;;;8.60;;
53411;SDS011;39307;52.870;13.660;2023-06-19T01:21:16;10.63;;;8.80;;
53411;SDS011;39307;52.870;13.660;2023-06-19T01:23:43;11.43;;;9.20;;
53411;SDS011;39307;52.870;13.660;2023-06-19T01:26:10;12.35;;;9.07;;
53411;SDS011;39307;52.870;13.660;2023-06-19T01:28:37;12.55;;;9.38;;
53411;SDS011;39307;52.870;13.660;2023-06-19T01:34:17;11.07;;;8.95;;
53411;SDS011;39307;52.870;13.660;2023-06-19T01:36:47;10.47;;;8.77;;
53411;SDS011;39307;52.870;13.660;2023-06-19T01:39:14;11.25;;;8.93;;
53411;SDS011;39307;52.870;13.660;2023-06-19T01:41:41;10.73;;;8.52;;
53411;SDS011;39307;52.870;13.660;2023-06-19T01:44:08;11.23;;;8.77;;
53411;SDS011;39307;52.870;13.660;2023-06-19T01:46:35;12.40;;;9.68;;
53411;SDS011;39307;52.870;13.660;2023-06-19T01:49:01;11.60;;;9.90;;
53411;SDS011;39307;52.870;13.660;2023-06-19T01:51:32;10.45;;;9.20;;
53411;SDS011;39307;52.870;13.660;2023-06-19T01:53:58;11.55;;;9.73;;
53411;SDS011;39307;52.870;13.660;2023-06-19T01:56:24;12.38;;;9.68;;
53411;SDS011;39307;52.870;13.660;2023-06-19T01:58:51;13.32;;;10.70;;
53411;SDS011;39307;52.870;13.660;2023-06-19T02:01:17;12.80;;;10.27;;
53411;SDS011;39307;52.870;13.660;2023-06-19T02:03:43;11.20;;;10.00;;
53411;SDS011;39307;52.870;13.660;2023-06-19T02:06:09;12.77;;;10.75;;
53411;SDS011;39307;52.870;13.660;2023-06-19T02:08:35;12.05;;;9.75;;
53411;SDS011;39307;52.870;13.660;2023-06-19T02:11:02;13.35;;;9.68;;
53411;SDS011;39307;52.870;13.660;2023-06-19T02:13:28;12.32;;;9.75;;
53411;SDS011;39307;52.870;13.660;2023-06-19T02:15:54;13.13;;;9.77;;
53411;SDS011;39307;52.870;13.660;2023-06-19T02:18:20;13.65;;;9.52;;
53411;SDS011;39307;52.870;13.660;2023-06-19T02:20:46;11.48;;;9.40;;
53411;SDS011;39307;52.870;13.660;2023-06-19T02:23:13;11.10;;;9.73;;
53411;SDS011;39307;52.870;13.660;2023-06-19T02:25:39;11.90;;;10.02;;
53411;SDS011;39307;52.870;13.660;2023-06-19T02:28:05;11.55;;;9.77;;
53411;SDS011;39307;52.870;13.660;2023-06-19T02:30:31;12.93;;;9.60;;
53411;SDS011;39307;52.870;13.660;2023-06-19T02:32:57;11.75;;;9.43;;
53411;SDS011;39307;52.870;13.660;2023-06-19T02:35:24;11.93;;;9.32;;
53411;SDS011;39307;52.870;13.660;2023-06-19T02:37:50;12.80;;;9.50;;
53411;SDS011;39307;52.870;13.660;2023-06-19T02:40:16;10.70;;;8.88;;
53411;SDS011;39307;52.870;13.660;2023-06-19T02:42:42;11.73;;;9.60;;
53411;SDS011;39307;52.870;13.660;2023-06-19T02:45:08;12.25;;;9.75;;
53411;SDS011;39307;52.870;13.660;2023-06-19T02:47:35;11.18;;;9.13;;
53411;SDS011;39307;52.870;13.660;2023-06-19T02:50:02;10.97;;;9.37;;
53411;SDS011;39307;52.870;13.660;2023-06-19T02:52:29;11.07;;;9.18;;
53411;SDS011;39307;52.870;13.660;2023-06-19T02:54:55;10.93;;;9.35;;
53411;SDS011;39307;52.870;13.660;2023-06-19T02:57:22;13.33;;;9.63;;
53411;SDS011;39307;52.870;13.660;2023-06-19T02:59:48;12.27;;;10.07;;
53411;SDS011;39307;52.870;13.660;2023-06-19T03:02:14;13.07;;;9.97;;
53411;SDS011;39307;52.870;13.660;2023-06-19T03:04:40;12.35;;;10.38;;
53411;SDS011;39307;52.870;13.660;2023-06-19T03:07:08;13.68;;;9.70;;
53411;SDS011;39307;52.870;13.660;2023-06-19T03:09:34;11.55;;;10.10;;
53411;SDS011;39307;52.870;13.660;2023-06-19T03:12:01;11.73;;;9.60;;
53411;SDS011;39307;52.870;13.660;2023-06-19T03:14:27;13.18;;;10.45;;
53411;SDS011;39307;52.870;13.660;2023-06-19T03:16:53;12.45;;;9.88;;
53411;SDS011;39307;52.870;13.660;2023-06-19T03:19:19;11.70;;;10.13;;
53411;SDS011;39307;52.870;13.660;2023-06-19T03:21:46;12.05;;;10.38;;
53411;SDS011;39307;52.870;13.660;2023-06-19T03:24:12;12.48;;;10.38;;
53411;SDS011;39307;52.870;13.660;2023-06-19T03:26:38;13.70;;;11.02;;
53411;SDS011;39307;52.870;13.660;2023-06-19T03:29:04;14.18;;;10.73;;
53411;SDS011;39307;52.870;13.660;2023-06-19T03:31:30;12.43;;;10.38;;
53411;SDS011;39307;52.870;13.660;2023-06-19T03:33:57;13.02;;;10.70;;
53411;SDS011;39307;52.870;13.660;2023-06-19T03:36:23;13.48;;;10.50;;
53411;SDS011;39307;52.870;13.660;2023-06-19T03:38:49;12.85;;;11.32;;
53411;SDS011;39307;52.870;13.660;2023-06-19T03:41:15;13.07;;;10.75;;
53411;SDS011;39307;52.870;13.660;2023-06-19T03:43:41;13.15;;;10.70;;
53411;SDS011;39307;52.870;13.660;2023-06-19T03:46:07;13.00;;;10.80;;
53411;SDS011;39307;52.870;13.660;2023-06-19T03:48:33;12.88;;;11.18;;
53411;SDS011;39307;52.870;13.660;2023-06-19T03:50:59;13.32;;;10.75;;
53411;SDS011;39307;52.870;13.660;2023-06-19T03:53:25;12.93;;;11.48;;
53411;SDS011;39307;52.870;13.660;2023-06-19T03:55:52;13.10;;;11.00;;
53411;SDS011;39307;52.870;13.660;2023-06-19T03:58:18;13.60;;;11.02;;
53411;SDS011;39307;52.870;13.660;2023-06-19T04:00:44;12.93;;;11.10;;
53411;SDS011;39307;52.870;13.660;2023-06-19T04:03:11;12.50;;;11.02;;
53411;SDS011;39307;52.870;13.660;2023-06-19T04:05:37;13.90;;;11.60;;
53411;SDS011;39307;52.870;13.660;2023-06-19T04:08:03;12.63;;;10.98;;
53411;SDS011;39307;52.870;13.660;2023-06-19T04:10:29;14.18;;;11.25;;
53411;SDS011;39307;52.870;13.660;2023-06-19T04:12:56;14.32;;;11.68;;
53411;SDS011;39307;52.870;13.660;2023-06-19T04:15:22;13.27;;;11.40;;
53411;SDS011;39307;52.870;13.660;2023-06-19T04:17:49;17.02;;;11.75;;
53411;SDS011;39307;52.870;13.660;2023-06-19T04:20:15;14.98;;;11.75;;
53411;SDS011;39307;52.870;13.660;2023-06-19T04:22:41;13.00;;;11.43;;
53411;SDS011;39307;52.870;13.660;2023-06-19T04:25:08;14.60;;;12.32;;
53411;SDS011;39307;52.870;13.660;2023-06-19T04:27:35;12.55;;;11.25;;
53411;SDS011;39307;52.870;13.660;2023-06-19T04:30:02;14.88;;;11.75;;
53411;SDS011;39307;52.870;13.660;2023-06-19T04:32:29;13.27;;;11.60;;
53411;SDS011;39307;52.870;13.660;2023-06-19T04:34:55;13.50;;;12.10;;
53411;SDS011;39307;52.870;13.660;2023-06-19T04:37:22;17.33;;;12.00;;
53411;SDS011;39307;52.870;13.660;2023-06-19T04:39:48;15.40;;;13.00;;
53411;SDS011;39307;52.870;13.660;2023-06-19T04:42:16;16.00;;;12.15;;
53411;SDS011;39307;52.870;13.660;2023-06-19T04:44:43;14.35;;;12.20;;
53411;SDS011;39307;52.870;13.660;2023-06-19T04:47:09;13.95;;;12.25;;
53411;SDS011;39307;52.870;13.660;2023-06-19T04:49:35;13.50;;;12.10;;
53411;SDS011;39307;52.870;13.660;2023-06-19T04:52:01;13.75;;;11.80;;
53411;SDS011;39307;52.870;13.660;2023-06-19T04:54:28;13.82;;;11.75;;
53411;SDS011;39307;52.870;13.660;2023-06-19T04:56:54;13.55;;;12.15;;
53411;SDS011;39307;52.870;13.660;2023-06-19T04:59:20;13.90;;;11.87;;
53411;SDS011;39307;52.870;13.660;2023-06-19T05:01:47;13.10;;;11.70;;
53411;SDS011;39307;52.870;13.660;2023-06-19T05:04:13;14.13;;;12.37;;
53411;SDS011;39307;52.870;13.660;2023-06-19T05:06:39;16.13;;;13.77;;
53411;SDS011;39307;52.870;13.660;2023-06-19T05:09:05;14.00;;;12.47;;
53411;SDS011;39307;52.870;13.660;2023-06-19T05:11:31;17.45;;;12.43;;
53411;SDS011;39307;52.870;13.660;2023-06-19T05:13:58;14.02;;;12.52;;
53411;SDS011;39307;52.870;13.660;2023-06-19T05:16:24;14.88;;;12.30;;
53411;SDS011;39307;52.870;13.660;2023-06-19T05:18:50;14.02;;;12.15;;
53411;SDS011;39307;52.870;13.660;2023-06-19T05:21:17;13.45;;;11.90;;
53411;SDS011;39307;52.870;13.660;2023-06-19T05:23:43;14.77;;;11.90;;
53411;SDS011;39307;52.870;13.660;2023-06-19T05:26:09;13.48;;;11.95;;
53411;SDS011;39307;52.870;13.660;2023-06-19T05:28:35;13.40;;;12.00;;
53411;SDS011;39307;52.870;13.660;2023-06-19T05:31:01;13.70;;;12.30;;
53411;SDS011;39307;52.870;13.660;2023-06-19T05:33:28;13.35;;;11.82;;
53411;SDS011;39307;52.870;13.660;2023-06-19T05:35:54;14.23;;;12.43;;
53411;SDS011;39307;52.870;13.660;2023-06-19T05:38:20;14.27;;;12.37;;
53411;SDS011;39307;52.870;13.660;2023-06-19T05:40:47;13.93;;;11.97;;
53411;SDS011;39307;52.870;13.660;2023-06-19T05:43:13;14.40;;;12.75;;
53411;SDS011;39307;52.870;13.660;2023-06-19T05:45:39;16.27;;;13.15;;
53411;SDS011;39307;52.870;13.660;2023-06-19T05:48:05;14.88;;;12.55;;
53411;SDS011;39307;52.870;13.660;2023-06-19T05:50:32;13.60;;;12.20;;
53411;SDS011;39307;52.870;13.660;2023-06-19T05:52:59;14.23;;;12.18;;
53411;SDS011;39307;52.870;13.660;2023-06-19T05:55:25;14.85;;;12.45;;
53411;SDS011;39307;52.870;13.660;2023-06-19T05:57:51;14.13;;;12.40;;
53411;SDS011;39307;52.870;13.660;2023-06-19T06:00:18;14.02;;;12.38;;
53411;SDS011;39307;52.870;13.660;2023-06-19T06:02:44;15.27;;;12.32;;
53411;SDS011;39307;52.870;13.660;2023-06-19T06:05:10;13.98;;;12.55;;
53411;SDS011;39307;52.870;13.660;2023-06-19T06:07:36;14.77;;;13.02;;
53411;SDS011;39307;52.870;13.660;2023-06-19T06:10:03;15.30;;;13.38;;
53411;SDS011;39307;52.870;13.660;2023-06-19T06:12:29;14.98;;;13.40;;
53411;SDS011;39307;52.870;13.660;2023-06-19T06:14:55;14.38;;;12.88;;
53411;SDS011;39307;52.870;13.660;2023-06-19T06:17:21;14.80;;;13.20;;
53411;SDS011;39307;52.870;13.660;2023-06-19T06:19:48;14.30;;;12.80;;
53411;SDS011;39307;52.870;13.660;2023-06-19T06:22:14;14.18;;;12.65;;
53411;SDS011;39307;52.870;13.660;2023-06-19T06:24:40;14.80;;;12.35;;
53411;SDS011;39307;52.870;13.660;2023-06-19T06:27:06;14.40;;;12.90;;
53411;SDS011;39307;52.870;13.660;2023-06-19T06:29:33;14.77;;;13.20;;
53411;SDS011;39307;52.870;13.660;2023-06-19T06:32:05;15.90;;;13.27;;
53411;SDS011;39307;52.870;13.660;2023-06-19T06:34:33;16.13;;;13.65;;
53411;SDS011;39307;52.870;13.660;2023-06-19T06:36:59;17.10;;;13.15;;
53411;SDS011;39307;52.870;13.660;2023-06-19T06:39:26;14.65;;;12.35;;
53411;SDS011;39307;52.870;13.660;2023-06-19T06:41:53;14.82;;;13.23;;
53411;SDS011;39307;52.870;13.660;2023-06-19T06:44:19;16.17;;;13.40;;
53411;SDS011;39307;52.870;13.660;2023-06-19T06:46:45;15.00;;;13.40;;
53411;SDS011;39307;52.870;13.660;2023-06-19T06:49:11;16.30;;;13.70;;
53411;SDS011;39307;52.870;13.660;2023-06-19T06:51:38;14.98;;;13.10;;
53411;SDS011;39307;52.870;13.660;2023-06-19T06:54:04;16.30;;;14.17;;
53411;SDS011;39307;52.870;13.660;2023-06-19T06:56:30;15.63;;;13.50;;
53411;SDS011;39307;52.870;13.660;2023-06-19T06:58:56;15.05;;;13.45;;
53411;SDS011;39307;52.870;13.660;2023-06-19T07:01:23;15.18;;;13.25;;
53411;SDS011;39307;52.870;13.660;2023-06-19T07:03:49;14.48;;;12.90;;
53411;SDS011;39307;52.870;13.660;2023-06-19T07:06:15;18.23;;;14.10;;
53411;SDS011;39307;52.870;13.660;2023-06-19T07:08:42;19.10;;;13.73;;
53411;SDS011;39307;52.870;13.660;2023-06-19T07:11:09;15.88;;;14.18;;
53411;SDS011;39307;52.870;13.660;2023-06-19T07:13:35;16.13;;;13.55;;
53411;SDS011;39307;52.870;13.660;2023-06-19T07:16:02;16.27;;;12.80;;
53411;SDS011;39307;52.870;13.660;2023-06-19T07:18:28;15.52;;;12.93;;
53411;SDS011;39307;52.870;13.660;2023-06-19T07:20:54;14.88;;;13.23;;
53411;SDS011;39307;52.870;13.660;2023-06-19T07:23:21;17.17;;;14.27;;
53411;SDS011;39307;52.870;13.660;2023-06-19T07:25:47;14.02;;;12.50;;
53411;SDS011;39307;52.870;13.660;2023-06-19T07:28:14;13.95;;;12.48;;
53411;SDS011;39307;52.870;13.660;2023-06-19T07:30:40;15.20;;;13.13;;
53411;SDS011;39307;52.870;13.660;2023-06-19T07:33:07;17.33;;;13.60;;
53411;SDS011;39307;52.870;13.660;2023-06-19T07:35:34;16.40;;;13.77;;
53411;SDS011;39307;52.870;13.660;2023-06-19T07:38:00;14.70;;;12.98;;
53411;SDS011;39307;52.870;13.660;2023-06-19T07:40:26;16.90;;;13.30;;
53411;SDS011;39307;52.870;13.660;2023-06-19T07:42:52;15.07;;;13.50;;
53411;SDS011;39307;52.870;13.660;2023-06-19T07:45:19;14.80;;;13.02;;
53411;SDS011;39307;52.870;13.660;2023-06-19T07:47:53;14.95;;;13.32;;
53411;SDS011;39307;52.870;13.660;2023-06-19T07:50:23;15.15;;;13.65;;
53411;SDS011;39307;52.870;13.660;2023-06-19T07:52:49;16.77;;;14.30;;
53411;SDS011;39307;52.870;13.660;2023-06-19T07:55:15;15.68;;;13.98;;
53411;SDS011;39307;52.870;13.660;2023-06-19T07:57:42;15.93;;;14.25;;
53411;SDS011;39307;52.870;13.660;2023-06-19T08:00:08;16.45;;;13.70;;
53411;SDS011;39307;52.870;13.660;2023-06-19T08:02:35;16.13;;;14.15;;
53411;SDS011;39307;52.870;13.660;2023-06-19T08:05:01;17.42;;;14.77;;
53411;SDS011;39307;52.870;13.660;2023-06-19T08:07:27;16.00;;;14.00;;
53411;SDS011;39307;52.870;13.660;2023-06-19T08:09:53;16.08;;;14.48;;
53411;SDS011;39307;52.870;13.660;2023-06-19T08:12:20;16.50;;;14.15;;
53411;SDS011;39307;52.870;13.660;2023-06-19T08:14:46;16.17;;;14.48;;
53411;SDS011;39307;52.870;13.660;2023-06-19T08:17:12;15.05;;;13.48;;
53411;SDS011;39307;52.870;13.660;2023-06-19T08:19:38;16.38;;;14.30;;
53411;SDS011;39307;52.870;13.660;2023-06-19T08:22:05;15.95;;;14.35;;
53411;SDS011;39307;52.870;13.660;2023-06-19T08:24:31;15.63;;;14.02;;
53411;SDS011;39307;52.870;13.660;2023-06-19T08:26:57;16.02;;;13.63;;
53411;SDS011;39307;52.870;13.660;2023-06-19T08:29:24;15.75;;;14.13;;
53411;SDS011;39307;52.870;13.660;2023-06-19T08:31:50;15.60;;;13.77;;
53411;SDS011;39307;52.870;13.660;2023-06-19T08:34:16;15.25;;;13.30;;
53411;SDS011;39307;52.870;13.660;2023-06-19T08:36:42;15.80;;;14.18;;
53411;SDS011;39307;52.870;13.660;2023-06-19T08:39:08;16.27;;;13.38;;
53411;SDS011;39307;52.870;13.660;2023-06-19T08:41:37;14.65;;;13.02;;
53411;SDS011;39307;52.870;13.660;2023-06-19T08:44:04;14.60;;;13.07;;
53411;SDS011;39307;52.870;13.660;2023-06-19T08:46:31;15.63;;;13.32;;
53411;SDS011;39307;52.870;13.660;2023-06-19T08:48:57;16.20;;;14.50;;
53411;SDS011;39307;52.870;13.660;2023-06-19T08:51:23;15.63;;;13.65;;
53411;SDS011;39307;52.870;13.660;2023-06-19T08:53:54;15.48;;;13.60;;
53411;SDS011;39307;52.870;13.660;2023-06-19T08:56:27;16.15;;;14.38;;
53411;SDS011;39307;52.870;13.660;2023-06-19T08:58:53;17.73;;;14.23;;
53411;SDS011;39307;52.870;13.660;2023-06-19T09:01:20;16.55;;;14.45;;
53411;SDS011;39307;52.870;13.660;2023-06-19T09:03:46;16.40;;;14.63;;
53411;SDS011;39307;52.870;13.660;2023-06-19T09:06:15;16.03;;;13.40;;
53411;SDS011;39307;52.870;13.660;2023-06-19T09:08:42;15.98;;;14.10;;
53411;SDS011;39307;52.870;13.660;2023-06-19T09:11:08;16.58;;;14.02;;
53411;SDS011;39307;52.870;13.660;2023-06-19T09:13:34;15.02;;;13.35;;
53411;SDS011;39307;52.870;13.660;2023-06-19T09:16:02;16.67;;;14.25;;
53411;SDS011;39307;52.870;13.660;2023-06-19T09:18:30;15.43;;;13.82;;
53411;SDS011;39307;52.870;13.660;2023-06-19T09:20:57;16.03;;;13.57;;
53411;SDS011;39307;52.870;13.660;2023-06-19T09:23:24;16.17;;;13.63;;
53411;SDS011;39307;52.870;13.660;2023-06-19T09:25:51;16.08;;;13.68;;
53411;SDS011;39307;52.870;13.660;2023-06-19T09:28:22;15.50;;;13.60;;
53411;SDS011;39307;52.870;13.660;2023-06-19T09:33:28;17.90;;;13.32;;
53411;SDS011;39307;52.870;13.660;2023-06-19T09:35:56;15.45;;;13.25;;
53411;SDS011;39307;52.870;13.660;2023-06-19T09:38:26;15.70;;;13.68;;
53411;SDS011;39307;52.870;13.660;2023-06-19T09:40:55;15.60;;;13.45;;
53411;SDS011;39307;52.870;13.660;2023-06-19T09:43:23;15.10;;;13.50;;
53411;SDS011;39307;52.870;13.660;2023-06-19T09:45:51;14.57;;;12.73;;
53411;SDS011;39307;52.870;13.660;2023-06-19T09:48:22;14.85;;;13.25;;
53411;SDS011;39307;52.870;13.660;2023-06-19T09:50:57;15.82;;;12.90;;
53411;SDS011;39307;52.870;13.660;2023-06-19T09:53:35;14.57;;;12.90;;
53411;SDS011;39307;52.870;13.660;2023-06-19T09:56:02;15.55;;;13.50;;
53411;SDS011;39307;52.870;13.660;2023-06-19T09:58:29;16.35;;;14.13;;
53411;SDS011;39307;52.870;13.660;2023-06-19T10:00:57;15.63;;;13.10;;
53411;SDS011;39307;52.870;13.660;2023-06-19T10:03:31;15.70;;;14.10;;
53411;SDS011;39307;52.870;13.660;2023-06-19T10:05:59;16.65;;;13.15;;
53411;SDS011;39307;52.870;13.660;2023-06-19T10:08:30;15.48;;;13.85;;
53411;SDS011;39307;52.870;13.660;2023-06-19T10:10:57;16.33;;;14.30;;
53411;SDS011;39307;52.870;13.660;2023-06-19T10:13:30;14.90;;;13.20;;
53411;SDS011;39307;52.870;13.660;2023-06-19T10:16:01;16.42;;;14.68;;
53411;SDS011;39307;52.870;13.660;2023-06-19T10:18:28;16.15;;;12.80;;
53411;SDS011;39307;52.870;13.660;2023-06-19T10:20:54;16.10;;;13.23;;
53411;SDS011;39307;52.870;13.660;2023-06-19T10:23:21;15.60;;;12.68;;
53411;SDS011;39307;52.870;13.660;2023-06-19T10:25:56;17.67;;;12.98;;
53411;SDS011;39307;52.870;13.660;2023-06-19T10:28:29;15.60;;;13.20;;
53411;SDS011;39307;52.870;13.660;2023-06-19T10:31:01;14.68;;;12.18;;
53411;SDS011;39307;52.870;13.660;2023-06-19T10:33:30;14.88;;;12.57;;
53411;SDS011;39307;52.870;13.660;2023-06-19T10:35:58;13.43;;;12.02;;
53411;SDS011;39307;52.870;13.660;2023-06-19T10:38:26;14.13;;;12.52;;
53411;SDS011;39307;52.870;13.660;2023-06-19T10:40:52;15.30;;;13.13;;
53411;SDS011;39307;52.870;13.660;2023-06-19T10:43:22;14.45;;;12.60;;
53411;SDS011;39307;52.870;13.660;2023-06-19T10:45:49;14.80;;;12.23;;
53411;SDS011;39307;52.870;13.660;2023-06-19T10:48:20;16.08;;;13.45;;
53411;SDS011;39307;52.870;13.660;2023-06-19T10:50:48;17.73;;;12.75;;
53411;SDS011;39307;52.870;13.660;2023-06-19T10:53:28;14.67;;;12.73;;
53411;SDS011;39307;52.870;13.660;2023-06-19T10:55:59;15.40;;;13.40;;
53411;SDS011;39307;52.870;13.660;2023-06-19T10:58:26;17.08;;;12.52;;
53411;SDS011;39307;52.870;13.660;2023-06-19T11:00:53;14.70;;;12.50;;
53411;SDS011;39307;52.870;13.660;2023-06-19T11:03:20;16.45;;;12.57;;
53411;SDS011;39307;52.870;13.660;2023-06-19T11:05:47;14.00;;;12.50;;
53411;SDS011;39307;52.870;13.660;2023-06-19T11:08:18;15.40;;;12.68;;
53411;SDS011;39307;52.870;13.660;2023-06-19T11:10:44;17.98;;;13.07;;
53411;SDS011;39307;52.870;13.660;2023-06-19T11:13:14;15.30;;;12.35;;
53411;SDS011;39307;52.870;13.660;2023-06-19T11:15:42;13.83;;;12.03;;
53411;SDS011;39307;52.870;13.660;2023-06-19T11:18:08;16.73;;;11.95;;
53411;SDS011;39307;52.870;13.660;2023-06-19T11:20:50;13.15;;;11.65;;
53411;SDS011;39307;52.870;13.660;2023-06-19T11:23:27;13.25;;;11.85;;
53411;SDS011;39307;52.870;13.660;2023-06-19T11:25:54;12.98;;;11.20;;
53411;SDS011;39307;52.870;13.660;2023-06-19T11:28:29;15.93;;;11.45;;
53411;SDS011;39307;52.870;13.660;2023-06-19T11:30:59;13.63;;;11.23;;
53411;SDS011;39307;52.870;13.660;2023-06-19T11:33:26;14.30;;;11.33;;
53411;SDS011;39307;52.870;13.660;2023-06-19T11:35:53;13.45;;;11.00;;
53411;SDS011;39307;52.870;13.660;2023-06-19T11:38:20;15.88;;;11.10;;
53411;SDS011;39307;52.870;13.660;2023-06-19T11:40:47;14.87;;;11.63;;
53411;SDS011;39307;52.870;13.660;2023-06-19T11:43:26;15.45;;;11.13;;
53411;SDS011;39307;52.870;13.660;2023-06-19T11:45:53;15.23;;;11.85;;
53411;SDS011;39307;52.870;13.660;2023-06-19T11:48:27;14.90;;;11.93;;
53411;SDS011;39307;52.870;13.660;2023-06-19T11:50:53;13.00;;;11.43;;
53411;SDS011;39307;52.870;13.660;2023-06-19T11:53:20;15.38;;;11.50;;
53411;SDS011;39307;52.870;13.660;2023-06-19T11:55:47;16.57;;;11.97;;
53411;SDS011;39307;52.870;13.660;2023-06-19T11:58:14;14.43;;;12.52;;
53411;SDS011;39307;52.870;13.660;2023-06-19T12:00:41;14.10;;;12.23;;
53411;SDS011;39307;52.870;13.660;2023-06-19T12:03:07;14.73;;;12.35;;
53411;SDS011;39307;52.870;13.660;2023-06-19T12:05:34;15.65;;;12.82;;
53411;SDS011;39307;52.870;13.660;2023-06-19T12:08:01;15.33;;;12.53;;
53411;SDS011;39307;52.870;13.660;2023-06-19T12:10:28;14.55;;;12.13;;
53411;SDS011;39307;52.870;13.660;2023-06-19T12:12:54;14.32;;;12.48;;
53411;SDS011;39307;52.870;13.660;2023-06-19T12:15:20;13.90;;;12.35;;
53411;SDS011;39307;52.870;13.660;2023-06-19T12:17:46;17.80;;;12.43;;
53411;SDS011;39307;52.870;13.660;2023-06-19T12:20:13;14.97;;;12.43;;
53411;SDS011;39307;52.870;13.660;2023-06-19T12:22:40;15.02;;;12.32;;
53411;SDS011;39307;52.870;13.660;2023-06-19T12:25:06;13.90;;;12.25;;
53411;SDS011;39307;52.870;13.660;2023-06-19T12:27:33;14.73;;;11.93;;
53411;SDS011;39307;52.870;13.660;2023-06-19T12:29:59;14.45;;;11.48;;
53411;SDS011;39307;52.870;13.660;2023-06-19T12:32:25;14.95;;;12.18;;
53411;SDS011;39307;52.870;13.660;2023-06-19T12:34:51;14.98;;;11.68;;
53411;SDS011;39307;52.870;13.660;2023-06-19T12:37:17;15.07;;;10.88;;
53411;SDS011;39307;52.870;13.660;2023-06-19T12:39:44;12.32;;;10.98;;
53411;SDS011;39307;52.870;13.660;2023-06-19T12:42:10;13.07;;;10.52;;
53411;SDS011;39307;52.870;13.660;2023-06-19T12:44:36;15.85;;;11.32;;
53411;SDS011;39307;52.870;13.660;2023-06-19T12:47:02;12.98;;;10.75;;
53411;SDS011;39307;52.870;13.660;2023-06-19T12:49:29;13.40;;;10.38;;
53411;SDS011;39307;52.870;13.660;2023-06-19T12:51:55;11.90;;;10.50;;
53411;SDS011;39307;52.870;13.660;2023-06-19T12:54:21;12.27;;;10.30;;
53411;SDS011;39307;52.870;13.660;2023-06-19T12:56:48;13.38;;;10.68;;
53411;SDS011;39307;52.870;13.660;2023-06-19T12:59:14;14.30;;;10.80;;
53411;SDS011;39307;52.870;13.660;2023-06-19T13:01:41;12.27;;;10.80;;
53411;SDS011;39307;52.870;13.660;2023-06-19T13:04:08;13.87;;;10.33;;
53411;SDS011;39307;52.870;13.660;2023-06-19T13:06:38;11.82;;;10.57;;
53411;SDS011;39307;52.870;13.660;2023-06-19T13:09:05;12.00;;;10.27;;
53411;SDS011;39307;52.870;13.660;2023-06-19T13:11:31;10.85;;;9.75;;
53411;SDS011;39307;52.870;13.660;2023-06-19T13:13:57;12.45;;;10.13;;
53411;SDS011;39307;52.870;13.660;2023-06-19T13:16:24;10.35;;;9.02;;
53411;SDS011;39307;52.870;13.660;2023-06-19T13:18:50;12.07;;;9.40;;
53411;SDS011;39307;52.870;13.660;2023-06-19T13:21:16;11.63;;;9.32;;
53411;SDS011;39307;52.870;13.660;2023-06-19T13:23:42;10.88;;;9.10;;
53411;SDS011;39307;52.870;13.660;2023-06-19T13:26:09;11.07;;;8.88;;
53411;SDS011;39307;52.870;13.660;2023-06-19T13:28:36;11.77;;;9.52;;
53411;SDS011;39307;52.870;13.660;2023-06-19T13:31:02;11.15;;;9.15;;
53411;SDS011;39307;52.870;13.660;2023-06-19T13:33:29;11.73;;;9.10;;
53411;SDS011;39307;52.870;13.660;2023-06-19T13:35:55;10.33;;;8.73;;
53411;SDS011;39307;52.870;13.660;2023-06-19T13:38:21;11.15;;;8.77;;
53411;SDS011;39307;52.870;13.660;2023-06-19T13:40:48;10.80;;;8.70;;
53411;SDS011;39307;52.870;13.660;2023-06-19T13:43:14;10.37;;;8.50;;
53411;SDS011;39307;52.870;13.660;2023-06-19T13:45:40;11.10;;;8.27;;
53411;SDS011;39307;52.870;13.660;2023-06-19T13:48:07;10.13;;;8.50;;
53411;SDS011;39307;52.870;13.660;2023-06-19T13:50:33;10.73;;;8.35;;
53411;SDS011;39307;52.870;13.660;2023-06-19T13:53:00;10.70;;;8.73;;
53411;SDS011;39307;52.870;13.660;2023-06-19T13:55:26;8.93;;;7.88;;
53411;SDS011;39307;52.870;13.660;2023-06-19T13:57:52;10.45;;;8.52;;
53411;SDS011;39307;52.870;13.660;2023-06-19T14:00:19;9.57;;;8.43;;
53411;SDS011;39307;52.870;13.660;2023-06-19T14:02:45;10.00;;;8.35;;
53411;SDS011;39307;52.870;13.660;2023-06-19T14:05:12;8.60;;;7.40;;
53411;SDS011;39307;52.870;13.660;2023-06-19T14:07:38;10.60;;;7.90;;
53411;SDS011;39307;52.870;13.660;2023-06-19T14:10:06;9.20;;;7.40;;
53411;SDS011;39307;52.870;13.660;2023-06-19T14:12:32;9.65;;;8.07;;
53411;SDS011;39307;52.870;13.660;2023-06-19T14:14:59;10.70;;;7.70;;
53411;SDS011;39307;52.870;13.660;2023-06-19T14:17:25;9.85;;;6.90;;
53411;SDS011;39307;52.870;13.660;2023-06-19T14:19:51;8.80;;;6.90;;
53411;SDS011;39307;52.870;13.660;2023-06-19T14:22:18;9.63;;;7.50;;